UTC weather

CLOSED Soesterberg Air Base
Soesterberg, Utrecht, Netherlands

Public forecast

Using degrees Celsius for public forecast. Weather courtesy of forecast.io.

METAR (pilot weather report)

Closest report is Amsterdam Airport Schiphol, 21.8 nm (40.3 km) WNW. Retrieved 2018/02/22 23:25 UTC (30 minutes ago):

EHAM 222325Z 07007KT CAVOK M01/M04 Q1025 NOSIG

TAF (pilot weather forecast)

Closest forecast is Amsterdam Airport Schiphol, 21.8 nm (40.3 km) WNW. Retrieved 2018/02/22 18:27 UTC (5 hours ago):

TAF EHAM 221643Z 2218/2324 06010KT CAVOK BECMG 2300/2303 7000 BKN035 PROB30 2305/2308 3500 BR SCT008 BECMG 2308/2311 08016KT CAVOK